Dodson, Texas
Current Conditions -  °F | °C
As of 5:53 PM on Tuesday 25 Nov 2014 (Local Time) from KCDS Reporting Station
Clear Clear  
Wind Chill: 52°   Ceiling: Unl
Heat Index: 52°   Visibility: 10mi
Dew Point: 17°   Wind: 10mph
Humidity: 25%   Direction: 210°SSW
Pressure: 30.05"   Gusts: NA
Location:  34.77°N, 100.02°W
Report Text: KCDS 252353Z AUTO 21009KT 10SM CLR 11/M08 A3005 RMK AO2 SLP174 T01111083 10150 20100 56025
Loading
Personal Weather Stations






























Interactive Weather Map New forecast layout! Learn more

10-Day Weather Forecast

Advertisements
Track Severe Weather on mobile